createdAt,value
2022-12-11T00:02:05.429Z,96476.20
2022-12-11T00:04:32.469Z,96473.40
2022-12-11T00:06:59.136Z,96473.60
2022-12-11T00:09:26.214Z,96471.80
2022-12-11T00:11:52.882Z,96472.40
2022-12-11T00:14:19.588Z,96471.80
2022-12-11T00:16:48.193Z,96472.20
2022-12-11T00:19:15.629Z,96476.60
2022-12-11T00:21:42.675Z,96478.60
2022-12-11T00:24:09.778Z,96475.20
2022-12-11T00:26:36.579Z,96472.20
2022-12-11T00:29:03.713Z,96474.40
2022-12-11T00:31:30.902Z,96476.80
2022-12-11T00:33:57.915Z,96473.60
2022-12-11T00:36:26.610Z,96472.60
2022-12-11T00:38:54.294Z,96468.00
2022-12-11T00:41:21.509Z,96468.80
2022-12-11T00:43:48.405Z,96470.40
2022-12-11T00:46:15.457Z,96471.80
2022-12-11T00:48:42.549Z,96476.00
2022-12-11T00:51:10.525Z,96477.80
2022-12-11T00:53:38.487Z,96477.80
2022-12-11T00:56:13.832Z,96487.80
2022-12-11T00:58:40.761Z,96486.00
2022-12-11T01:01:13.710Z,96491.20
2022-12-11T01:03:40.772Z,96498.80
2022-12-11T01:06:08.124Z,96502.00
2022-12-11T01:08:38.562Z,96499.60
2022-12-11T01:11:10.147Z,96503.40
2022-12-11T01:13:38.412Z,96505.80
2022-12-11T01:16:10.466Z,96512.60
2022-12-11T01:18:37.833Z,96514.40
2022-12-11T01:21:10.461Z,96514.80
2022-12-11T01:23:38.476Z,96514.00
2022-12-11T01:26:10.446Z,96515.40
2022-12-11T01:28:37.312Z,96524.00
2022-12-11T01:31:09.136Z,96524.20
2022-12-11T01:33:35.989Z,96525.40
2022-12-11T01:36:18.094Z,96532.40
2022-12-11T01:38:46.446Z,96532.80
2022-12-11T01:41:14.023Z,96533.60
2022-12-11T01:44:08.520Z,96532.20
2022-12-11T01:46:36.855Z,96527.40
2022-12-11T01:49:08.300Z,96529.40
2022-12-11T01:51:41.431Z,96527.40
2022-12-11T01:54:12.213Z,96526.20
2022-12-11T01:56:43.816Z,96526.00
2022-12-11T01:59:11.275Z,96524.20
2022-12-11T02:01:43.198Z,96529.80
2022-12-11T02:04:16.058Z,96539.40
2022-12-11T02:06:48.740Z,96540.40
2022-12-11T02:09:22.314Z,96542.40
2022-12-11T02:12:07.690Z,96540.20
2022-12-11T02:14:40.060Z,96546.60
2022-12-11T02:17:22.864Z,96544.40
2022-12-11T02:19:59.755Z,96546.00
2022-12-11T02:23:11.539Z,96544.60
2022-12-11T02:25:50.200Z,96544.20
2022-12-11T02:28:35.226Z,96545.20
2022-12-11T02:31:12.771Z,96540.00
2022-12-11T02:33:56.666Z,96543.00
2022-12-11T02:36:26.453Z,96540.00
2022-12-11T02:38:55.579Z,96534.40
2022-12-11T02:41:24.861Z,96532.40
2022-12-11T02:43:53.348Z,96534.00
2022-12-11T02:46:21.735Z,96531.60
2022-12-11T02:48:51.239Z,96526.80
2022-12-11T02:51:22.428Z,96526.80
2022-12-11T02:53:52.392Z,96522.40
2022-12-11T02:56:24.762Z,96523.00
2022-12-11T02:59:00.613Z,96528.40
2022-12-11T03:01:27.815Z,96528.00
2022-12-11T03:03:56.426Z,96533.20
2022-12-11T03:06:29.287Z,96530.60
2022-12-11T03:08:56.278Z,96535.00
2022-12-11T03:11:23.170Z,96535.20
2022-12-11T03:13:50.107Z,96539.60
2022-12-11T03:16:39.723Z,96542.80
2022-12-11T03:19:15.388Z,96545.60
2022-12-11T03:22:00.676Z,96540.40
2022-12-11T03:24:33.550Z,96537.80
2022-12-11T03:27:11.251Z,96532.80
2022-12-11T03:29:45.566Z,96531.80
2022-12-11T03:32:23.493Z,96529.80
2022-12-11T03:34:58.175Z,96532.60
2022-12-11T03:37:28.442Z,96534.80
2022-12-11T03:40:02.540Z,96531.00
2022-12-11T03:42:29.881Z,96535.80
2022-12-11T03:45:00.104Z,96530.80
2022-12-11T03:47:29.884Z,96533.80
2022-12-11T03:49:59.727Z,96532.20
2022-12-11T03:52:29.128Z,96532.40
2022-12-11T03:55:01.731Z,96530.60
2022-12-11T03:57:34.715Z,96531.60
2022-12-11T04:00:05.141Z,96530.00
2022-12-11T04:02:39.161Z,96526.80
2022-12-11T04:05:06.480Z,96529.60
2022-12-11T04:07:33.220Z,96531.00
2022-12-11T04:10:00.348Z,96522.60
2022-12-11T04:12:27.070Z,96521.80
2022-12-11T04:15:02.486Z,96517.80
2022-12-11T04:17:50.286Z,96521.80
2022-12-11T04:20:36.279Z,96524.60
2022-12-11T04:23:40.086Z,96523.20
2022-12-11T04:26:12.904Z,96524.20
2022-12-11T04:28:40.324Z,96525.80
2022-12-11T04:31:11.935Z,96526.00
2022-12-11T04:33:38.886Z,96524.40
2022-12-11T04:36:06.381Z,96528.80
2022-12-11T04:38:33.444Z,96529.60
2022-12-11T04:41:12.088Z,96530.00
2022-12-11T04:43:39.559Z,96524.60
2022-12-11T04:46:06.234Z,96529.80
2022-12-11T04:48:33.603Z,96523.00
2022-12-11T04:51:00.309Z,96522.00
2022-12-11T04:53:28.306Z,96519.00
2022-12-11T04:55:55.661Z,96522.00
2022-12-11T04:58:23.730Z,96520.20
2022-12-11T05:00:51.190Z,96513.40
2022-12-11T05:03:18.343Z,96518.60
2022-12-11T05:05:53.164Z,96526.80
2022-12-11T05:08:21.085Z,96526.60
2022-12-11T05:11:05.793Z,96528.20
2022-12-11T05:13:33.562Z,96527.60
2022-12-11T05:16:00.582Z,96529.40
2022-12-11T05:18:27.340Z,96534.40
2022-12-11T05:20:58.736Z,96539.80
2022-12-11T05:23:26.295Z,96540.80
2022-12-11T05:26:04.667Z,96539.40
2022-12-11T05:28:33.967Z,96544.60
2022-12-11T05:31:04.976Z,96545.20
2022-12-11T05:33:32.290Z,96550.00
2022-12-11T05:35:59.050Z,96549.40
2022-12-11T05:38:26.303Z,96549.40
2022-12-11T05:41:05.320Z,96551.80
2022-12-11T05:43:34.986Z,96557.40
2022-12-11T05:46:09.078Z,96559.20
2022-12-11T05:48:37.321Z,96558.00
2022-12-11T05:51:04.732Z,96559.40
2022-12-11T05:53:31.674Z,96554.80
2022-12-11T05:56:11.047Z,96561.80
2022-12-11T05:58:39.522Z,96559.60
2022-12-11T06:01:25.251Z,96556.20
2022-12-11T06:03:53.262Z,96553.00
2022-12-11T06:06:20.392Z,96556.20
2022-12-11T06:08:50.634Z,96553.20
2022-12-11T06:11:23.634Z,96557.20
2022-12-11T06:13:51.211Z,96562.00
2022-12-11T06:16:18.063Z,96562.80
2022-12-11T06:18:45.784Z,96568.80
2022-12-11T06:21:18.363Z,96566.20
2022-12-11T06:23:47.243Z,96567.80
2022-12-11T06:26:15.599Z,96569.60
2022-12-11T06:28:42.637Z,96567.40
2022-12-11T06:31:09.754Z,96577.80
2022-12-11T06:33:37.366Z,96574.60
2022-12-11T06:36:06.147Z,96582.60
2022-12-11T06:38:33.107Z,96590.20
2022-12-11T06:41:01.430Z,96589.40
2022-12-11T06:43:28.421Z,96587.00
2022-12-11T06:45:59.166Z,96587.80
2022-12-11T06:48:28.875Z,96588.80
2022-12-11T06:50:55.604Z,96589.80
2022-12-11T06:53:22.338Z,96587.80
2022-12-11T06:55:49.049Z,96592.60
2022-12-11T06:58:15.861Z,96591.80
2022-12-11T07:00:43.045Z,96593.00
2022-12-11T07:03:10.635Z,96593.60
2022-12-11T07:05:37.295Z,96587.60
2022-12-11T07:08:04.158Z,96590.20
2022-12-11T07:10:30.974Z,96593.80
2022-12-11T07:12:57.655Z,96595.80
2022-12-11T07:15:24.319Z,96594.00
2022-12-11T07:17:51.003Z,96600.00
2022-12-11T07:20:17.814Z,96600.00
2022-12-11T07:22:46.672Z,96601.40
2022-12-11T07:25:14.978Z,96598.60
2022-12-11T07:27:41.779Z,96603.40
2022-12-11T07:30:09.997Z,96591.80
2022-12-11T07:32:36.794Z,96597.00
2022-12-11T07:35:04.476Z,96592.40
2022-12-11T07:37:31.442Z,96588.60
2022-12-11T07:39:58.153Z,96589.60
2022-12-11T07:42:24.906Z,96595.20
2022-12-11T07:44:51.667Z,96597.80
2022-12-11T07:47:18.416Z,96601.20
2022-12-11T07:49:45.094Z,96600.60
2022-12-11T07:52:11.755Z,96602.00
2022-12-11T07:54:38.618Z,96605.00
2022-12-11T07:57:08.181Z,96607.00
2022-12-11T07:59:39.269Z,96611.80
2022-12-11T08:02:06.268Z,96614.40
2022-12-11T08:04:33.056Z,96613.40
2022-12-11T08:07:00.207Z,96613.40
2022-12-11T08:09:26.947Z,96606.60
2022-12-11T08:11:53.687Z,96605.00
2022-12-11T08:14:20.941Z,96605.80
2022-12-11T08:16:48.294Z,96603.60
2022-12-11T08:19:15.788Z,96603.00
2022-12-11T08:21:42.829Z,96605.00
2022-12-11T08:24:10.445Z,96611.80
2022-12-11T08:26:37.201Z,96604.00
2022-12-11T08:29:04.361Z,96610.20
2022-12-11T08:31:33.241Z,96612.20
2022-12-11T08:34:00.444Z,96614.80
2022-12-11T08:36:27.229Z,96618.60
2022-12-11T08:38:55.709Z,96618.40
2022-12-11T08:41:28.347Z,96621.40
2022-12-11T08:43:56.512Z,96620.80
2022-12-11T08:46:26.124Z,96621.00
2022-12-11T08:48:54.958Z,96623.40
2022-12-11T08:51:23.816Z,96630.60
2022-12-11T08:53:51.610Z,96621.60
2022-12-11T08:56:23.648Z,96631.40
2022-12-11T08:58:51.349Z,96628.20
2022-12-11T09:01:24.027Z,96630.80
2022-12-11T09:03:52.396Z,96636.60
2022-12-11T09:06:22.136Z,96627.20
2022-12-11T09:08:52.809Z,96627.20
2022-12-11T09:11:23.065Z,96628.00
2022-12-11T09:13:50.781Z,96625.00
2022-12-11T09:16:21.218Z,96624.00
2022-12-11T09:18:49.331Z,96619.80
2022-12-11T09:21:19.097Z,96618.40
2022-12-11T09:23:46.132Z,96620.80
2022-12-11T09:26:16.194Z,96622.20
2022-12-11T09:28:46.769Z,96623.40
2022-12-11T09:31:16.712Z,96621.00
2022-12-11T09:33:43.937Z,96621.20
2022-12-11T09:36:12.171Z,96620.20
2022-12-11T09:38:39.005Z,96622.20
2022-12-11T09:41:33.023Z,96624.20
2022-12-11T09:44:35.363Z,96615.60
2022-12-11T09:47:02.408Z,96615.40
2022-12-11T09:49:43.687Z,96612.60
2022-12-11T09:52:16.214Z,96604.20
2022-12-11T09:54:50.238Z,96602.60
2022-12-11T09:57:37.491Z,96593.40
2022-12-11T10:00:21.949Z,96599.80
2022-12-11T10:03:01.304Z,96593.60
2022-12-11T10:06:02.649Z,96598.60
2022-12-11T10:08:43.917Z,96605.80
2022-12-11T10:11:40.146Z,96604.00
2022-12-11T10:14:11.819Z,96600.40
2022-12-11T10:16:48.887Z,96595.60
2022-12-11T10:19:24.529Z,96598.00
2022-12-11T10:21:52.709Z,96595.80
2022-12-11T10:25:09.553Z,96597.00
2022-12-11T10:27:31.592Z,96598.40
2022-12-11T10:30:14.367Z,96595.00
2022-12-11T10:33:02.044Z,96596.40
2022-12-11T10:35:54.030Z,96596.40
2022-12-11T10:38:33.072Z,96597.20
2022-12-11T10:41:03.996Z,96602.00
2022-12-11T10:43:43.281Z,96602.20
2022-12-11T10:46:23.068Z,96599.60
2022-12-11T10:49:01.016Z,96605.00
2022-12-11T10:51:30.584Z,96606.20
2022-12-11T10:54:17.508Z,96600.00
2022-12-11T10:56:48.345Z,96594.20
2022-12-11T10:59:45.523Z,96589.00
2022-12-11T11:02:27.453Z,96586.00
2022-12-11T11:04:56.540Z,96586.40
2022-12-11T11:07:26.167Z,96584.20
2022-12-11T11:10:25.693Z,96579.60
2022-12-11T11:13:01.412Z,96574.20
2022-12-11T11:15:31.307Z,96578.40
2022-12-11T11:18:16.445Z,96571.60
2022-12-11T11:20:47.995Z,96572.80
2022-12-11T11:23:17.279Z,96572.80
2022-12-11T11:25:55.605Z,96558.00
2022-12-11T11:28:27.011Z,96568.20
2022-12-11T11:31:14.993Z,96564.60
2022-12-11T11:33:46.632Z,96565.20
2022-12-11T11:36:28.936Z,96560.40
2022-12-11T11:39:33.465Z,96561.80
2022-12-11T11:42:18.839Z,96556.40
2022-12-11T11:44:59.917Z,96558.40
2022-12-11T11:47:34.754Z,96552.00
2022-12-11T11:50:15.513Z,96542.60
2022-12-11T11:52:45.531Z,96552.20
2022-12-11T11:55:22.286Z,96543.80
2022-12-11T11:58:16.898Z,96545.40
2022-12-11T12:00:43.845Z,96543.20
2022-12-11T12:03:17.190Z,96547.00
2022-12-11T12:05:43.876Z,96549.40
2022-12-11T12:08:24.561Z,96549.40
2022-12-11T12:11:22.648Z,96541.80
2022-12-11T12:14:43.608Z,96528.40
2022-12-11T12:17:16.986Z,96546.80
2022-12-11T12:19:59.243Z,96540.20
2022-12-11T12:22:38.256Z,96543.20
2022-12-11T12:25:36.015Z,96542.60
2022-12-11T12:28:05.730Z,96543.60
2022-12-11T12:30:45.168Z,96539.60
2022-12-11T12:33:38.226Z,96538.40
2022-12-11T12:36:17.461Z,96536.00
2022-12-11T12:38:47.067Z,96542.00
2022-12-11T12:41:55.481Z,96538.40
2022-12-11T12:44:25.530Z,96535.80
2022-12-11T12:47:13.646Z,96533.40
2022-12-11T12:49:43.140Z,96526.20
2022-12-11T12:52:21.566Z,96531.00
2022-12-11T12:55:12.615Z,96532.80
2022-12-11T12:57:48.423Z,96529.20
2022-12-11T13:00:31.235Z,96528.20
2022-12-11T13:03:01.318Z,96521.80
2022-12-11T13:05:34.461Z,96527.20
2022-12-11T13:08:04.928Z,96527.00
2022-12-11T13:10:33.306Z,96528.80
2022-12-11T13:13:02.040Z,96528.60
2022-12-11T13:15:33.800Z,96529.20
2022-12-11T13:18:03.812Z,96527.20
2022-12-11T13:20:34.503Z,96534.60
2022-12-11T13:23:07.239Z,96533.20
2022-12-11T13:25:50.338Z,96532.60
2022-12-11T13:28:31.449Z,96536.00
2022-12-11T13:31:26.834Z,96532.40
2022-12-11T13:33:57.326Z,96536.00
2022-12-11T13:36:26.769Z,96533.80
2022-12-11T13:39:07.259Z,96539.40
2022-12-11T13:41:36.832Z,96541.80
2022-12-11T13:44:05.225Z,96541.80
2022-12-11T13:46:36.783Z,96545.00
2022-12-11T13:49:07.059Z,96547.60
2022-12-11T13:51:38.066Z,96547.40
2022-12-11T13:54:06.201Z,96553.60
2022-12-11T13:56:33.772Z,96554.80
2022-12-11T13:59:00.602Z,96555.20
2022-12-11T14:01:34.432Z,96556.80
2022-12-11T14:04:09.322Z,96558.20
2022-12-11T14:06:38.982Z,96566.80
2022-12-11T14:09:07.255Z,96567.40
2022-12-11T14:11:42.257Z,96558.80
2022-12-11T14:14:33.302Z,96564.00
2022-12-11T14:17:00.516Z,96563.20
2022-12-11T14:19:27.874Z,96569.80
2022-12-11T14:22:02.909Z,96571.40
2022-12-11T14:24:31.181Z,96578.80
2022-12-11T14:26:58.699Z,96573.40
2022-12-11T14:29:29.671Z,96576.40
2022-12-11T14:32:00.119Z,96577.00
2022-12-11T14:34:34.421Z,96584.80
2022-12-11T14:37:05.992Z,96581.60
2022-12-11T14:39:44.901Z,96578.20
2022-12-11T14:42:17.285Z,96586.20
2022-12-11T14:44:50.426Z,96578.60
2022-12-11T14:47:32.154Z,96595.80
2022-12-11T14:50:47.739Z,96596.20
2022-12-11T14:53:19.619Z,96597.00
2022-12-11T14:55:49.249Z,96593.40
2022-12-11T14:58:25.105Z,96590.00
2022-12-11T15:01:05.833Z,96591.80
2022-12-11T15:03:39.059Z,96594.60
2022-12-11T15:06:28.592Z,96593.40
2022-12-11T15:08:55.716Z,96587.20
2022-12-11T15:11:24.837Z,96598.40
2022-12-11T15:13:54.587Z,96594.20
2022-12-11T15:16:23.233Z,96593.60
2022-12-11T15:18:52.372Z,96590.20
2022-12-11T15:21:28.095Z,96591.80
2022-12-11T15:24:00.600Z,96593.80
2022-12-11T15:26:37.329Z,96593.20
2022-12-11T15:29:07.447Z,96592.00
2022-12-11T15:31:37.820Z,96593.40
2022-12-11T15:34:22.308Z,96584.80
2022-12-11T15:36:48.967Z,96581.00
2022-12-11T15:39:15.661Z,96583.20
2022-12-11T15:41:43.266Z,96580.20
2022-12-11T15:44:18.493Z,96581.60
2022-12-11T15:46:45.413Z,96581.40
2022-12-11T15:49:13.038Z,96583.20
2022-12-11T15:51:43.199Z,96584.20
2022-12-11T15:54:10.377Z,96583.60
2022-12-11T15:56:37.017Z,96582.40
2022-12-11T15:59:06.973Z,96577.80
2022-12-11T16:01:34.641Z,96588.40
2022-12-11T16:04:04.948Z,96590.80
2022-12-11T16:06:33.219Z,96589.80
2022-12-11T16:09:00.179Z,96587.00
2022-12-11T16:11:27.285Z,96587.60
2022-12-11T16:13:54.043Z,96590.80
2022-12-11T16:16:20.835Z,96594.40
2022-12-11T16:18:50.365Z,96595.00
2022-12-11T16:21:21.437Z,96594.40
2022-12-11T16:23:48.973Z,96593.40
2022-12-11T16:26:15.886Z,96596.20
2022-12-11T16:28:43.306Z,96596.00
2022-12-11T16:31:14.352Z,96597.60
2022-12-11T16:33:41.868Z,96595.60
2022-12-11T16:36:14.343Z,96598.00
2022-12-11T16:38:41.185Z,96594.80
2022-12-11T16:41:08.033Z,96597.00
2022-12-11T16:43:34.756Z,96594.00
2022-12-11T16:46:01.837Z,96596.80
2022-12-11T16:48:28.593Z,96584.80
2022-12-11T16:50:57.168Z,96596.00
2022-12-11T16:53:24.963Z,96601.40
2022-12-11T16:55:51.963Z,96601.40
2022-12-11T16:58:20.253Z,96597.00
2022-12-11T17:00:48.366Z,96603.80
2022-12-11T17:03:15.752Z,96602.60
2022-12-11T17:05:44.370Z,96608.60
2022-12-11T17:08:13.213Z,96605.20
2022-12-11T17:10:42.006Z,96596.80
2022-12-11T17:13:09.690Z,96601.80
2022-12-11T17:15:41.558Z,96595.00
2022-12-11T17:18:09.345Z,96599.20
2022-12-11T17:20:45.067Z,96598.80
2022-12-11T17:23:13.524Z,96601.80
2022-12-11T17:25:42.415Z,96599.60
2022-12-11T17:28:11.318Z,96599.20
2022-12-11T17:30:43.086Z,96599.40
2022-12-11T17:33:10.937Z,96606.20
2022-12-11T17:35:38.206Z,96601.80
2022-12-11T17:38:05.877Z,96604.00
2022-12-11T17:40:32.986Z,96603.60
2022-12-11T17:43:00.456Z,96610.60
2022-12-11T17:45:27.532Z,96605.60
2022-12-11T17:47:55.287Z,96606.40
2022-12-11T17:50:22.004Z,96611.60
2022-12-11T17:52:48.744Z,96606.60
2022-12-11T17:55:15.864Z,96606.00
2022-12-11T17:57:42.940Z,96605.20
2022-12-11T18:00:10.294Z,96605.00
2022-12-11T18:02:39.087Z,96607.20
2022-12-11T18:05:06.297Z,96608.80
2022-12-11T18:07:36.849Z,96606.00
2022-12-11T18:10:04.322Z,96608.60
2022-12-11T18:12:31.184Z,96610.60
2022-12-11T18:15:02.640Z,96611.00
2022-12-11T18:17:29.489Z,96613.60
2022-12-11T18:19:56.200Z,96610.40
2022-12-11T18:22:23.343Z,96618.60
2022-12-11T18:24:50.049Z,96618.60
2022-12-11T18:27:16.926Z,96618.80
2022-12-11T18:29:43.567Z,96622.60
2022-12-11T18:32:10.271Z,96633.40
2022-12-11T18:34:36.945Z,96626.60
2022-12-11T18:37:03.668Z,96638.60
2022-12-11T18:39:30.417Z,96634.60
2022-12-11T18:42:24.349Z,96640.60
2022-12-11T18:44:45.027Z,96634.60
2022-12-11T18:47:11.938Z,96641.20
2022-12-11T18:49:38.678Z,96636.80
2022-12-11T18:52:05.947Z,96637.00
2022-12-11T18:54:32.874Z,96648.00
2022-12-11T18:57:00.052Z,96652.80
2022-12-11T18:59:26.867Z,96647.20
2022-12-11T19:01:53.672Z,96641.80
2022-12-11T19:04:20.742Z,96647.00
2022-12-11T19:06:47.495Z,96648.60
2022-12-11T19:09:14.205Z,96644.60
2022-12-11T19:11:41.710Z,96643.40
2022-12-11T19:14:09.806Z,96646.40
2022-12-11T19:16:39.874Z,96643.80
2022-12-11T19:19:13.777Z,96638.80
2022-12-11T19:21:41.263Z,96640.00
2022-12-11T19:24:11.735Z,96637.20
2022-12-11T19:26:38.808Z,96639.20
2022-12-11T19:29:05.509Z,96642.00
2022-12-11T19:31:33.018Z,96637.20
2022-12-11T19:34:00.642Z,96644.20
2022-12-11T19:36:29.262Z,96642.40
2022-12-11T19:39:01.370Z,96638.60
2022-12-11T19:41:28.988Z,96637.60
2022-12-11T19:43:57.561Z,96639.20
2022-12-11T19:46:27.570Z,96639.40
2022-12-11T19:48:57.266Z,96635.80
2022-12-11T19:51:28.440Z,96630.60
2022-12-11T19:53:56.102Z,96627.60
2022-12-11T19:56:23.291Z,96631.20
2022-12-11T19:58:50.093Z,96631.00
2022-12-11T20:01:28.970Z,96627.00
2022-12-11T20:03:59.660Z,96635.40
2022-12-11T20:06:35.805Z,96630.40
2022-12-11T20:09:02.817Z,96633.60
2022-12-11T20:11:31.945Z,96633.20
2022-12-11T20:13:58.996Z,96628.80
2022-12-11T20:16:53.405Z,96633.80
2022-12-11T20:19:12.755Z,96637.20
2022-12-11T20:21:39.495Z,96633.80
2022-12-11T20:24:06.748Z,96627.20
2022-12-11T20:26:36.086Z,96624.80
2022-12-11T20:29:05.357Z,96625.00
2022-12-11T20:31:33.248Z,96628.00
2022-12-11T20:34:00.066Z,96626.40
2022-12-11T20:36:27.493Z,96626.60
2022-12-11T20:38:54.559Z,96632.20
2022-12-11T20:41:23.858Z,96633.40
2022-12-11T20:43:53.158Z,96627.00
2022-12-11T20:46:21.381Z,96630.20
2022-12-11T20:48:49.268Z,96633.60
2022-12-11T20:51:25.257Z,96638.00
2022-12-11T20:53:59.056Z,96632.80
2022-12-11T20:56:29.393Z,96638.00
2022-12-11T20:58:57.281Z,96646.20
2022-12-11T21:01:26.167Z,96643.20
2022-12-11T21:03:53.702Z,96645.60
2022-12-11T21:06:31.348Z,96638.40
2022-12-11T21:09:00.494Z,96640.00
2022-12-11T21:11:27.909Z,96621.20
2022-12-11T21:13:54.882Z,96639.00
2022-12-11T21:16:22.308Z,96644.20
2022-12-11T21:18:49.296Z,96647.80
2022-12-11T21:21:17.059Z,96646.40
2022-12-11T21:23:44.812Z,96644.40
2022-12-11T21:26:12.416Z,96645.40
2022-12-11T21:28:39.121Z,96643.60
2022-12-11T21:31:09.957Z,96641.40
2022-12-11T21:33:36.784Z,96641.00
2022-12-11T21:36:05.937Z,96636.80
2022-12-11T21:38:33.453Z,96640.20
2022-12-11T21:41:18.128Z,96641.40
2022-12-11T21:44:49.835Z,96638.00
2022-12-11T21:46:33.947Z,96640.40
2022-12-11T21:49:00.761Z,96635.80
2022-12-11T21:51:36.452Z,96635.20
2022-12-11T21:54:07.353Z,96635.80
2022-12-11T21:56:34.297Z,96635.00
2022-12-11T21:59:01.792Z,96633.00
2022-12-11T22:01:32.186Z,96634.80
2022-12-11T22:03:59.412Z,96634.80
2022-12-11T22:06:26.133Z,96631.80
2022-12-11T22:08:53.110Z,96635.00
2022-12-11T22:11:22.920Z,96633.60
2022-12-11T22:13:49.866Z,96638.80
2022-12-11T22:16:16.662Z,96637.80
2022-12-11T22:18:43.725Z,96636.60
2022-12-11T22:21:10.728Z,96634.20
2022-12-11T22:23:39.367Z,96638.00
2022-12-11T22:26:08.102Z,96628.20
2022-12-11T22:28:34.854Z,96631.20
2022-12-11T22:31:02.009Z,96633.20
2022-12-11T22:33:28.769Z,96638.80
2022-12-11T22:36:00.672Z,96643.60
2022-12-11T22:38:27.359Z,96643.80
2022-12-11T22:40:54.858Z,96643.00
2022-12-11T22:43:21.842Z,96648.80
2022-12-11T22:45:49.418Z,96649.40
2022-12-11T22:48:16.340Z,96645.60
2022-12-11T22:50:43.592Z,96647.80
2022-12-11T22:53:10.593Z,96649.00
2022-12-11T22:55:40.658Z,96652.60
2022-12-11T22:58:07.702Z,96644.20
2022-12-11T23:00:34.406Z,96645.80
2022-12-11T23:03:02.110Z,96647.00
2022-12-11T23:05:29.409Z,96646.00
2022-12-11T23:07:56.252Z,96641.60
2022-12-11T23:10:23.414Z,96644.20
2022-12-11T23:12:50.542Z,96644.60
2022-12-11T23:15:18.839Z,96651.40
2022-12-11T23:17:45.682Z,96649.40
2022-12-11T23:20:12.832Z,96648.60
2022-12-11T23:22:40.186Z,96643.40
2022-12-11T23:25:07.294Z,96642.20
2022-12-11T23:27:33.956Z,96642.80
2022-12-11T23:30:00.816Z,96646.80
2022-12-11T23:32:27.485Z,96641.40
2022-12-11T23:34:54.192Z,96639.60
2022-12-11T23:37:20.837Z,96637.80
2022-12-11T23:39:47.672Z,96643.80
2022-12-11T23:42:14.638Z,96638.20
2022-12-11T23:44:41.663Z,96643.40
2022-12-11T23:47:08.455Z,96647.20
2022-12-11T23:49:36.169Z,96647.80
2022-12-11T23:52:03.379Z,96652.60
2022-12-11T23:54:31.072Z,96633.20
2022-12-11T23:56:57.945Z,96648.60
2022-12-11T23:59:24.662Z,96654.20
